Αναφορές Αεροδρομίων

 

KSJC - San Jose, California, USA
Distance from station: ΒΑ 14km
Ενημερώθηκε: 25/10/2020 17:53
Few Clouds
Few Clouds
 Ανεμος από calm
Ανεμος: Απνοια
Θερμοκρασία: 14°C
Σημείο Δρόσου: 10°C
Υγρασία: 77%
Βαρόμετρο: 1013.9 hPa
Clouds: Few Clouds
Visibility: 16 km
Cloud details: Few Clouds 427 m
Few Clouds 1128 m
2020/10/25 15:53 KSJC 251553Z 00000KT 10SM FEW014 FEW037 14/10 A2994 RMK AO2 SLP137 T01390100 $
KNUQ - Moffett Nas/Mtn, California, USA
Distance from station: Β 14km
Ενημερώθηκε: 25/10/2020 15:55
NOT Current
Συννεφιά
Συννεφιά
 Ανεμος από calm
Ανεμος: Απνοια
Θερμοκρασία: 11°C
Σημείο Δρόσου: 10°C
Υγρασία: 94%
Βαρόμετρο: 1013.2 hPa
Clouds: Συννεφιά
Visibility: 16 km
Cloud details: Συννεφιά 671 m
2020/10/25 13:55 KNUQ 251355Z AUTO 00000KT 10SM OVC022 11/10 A2992 RMK AO2
 
KPAO - Palo Alto, California, USA
Distance from station: ΒΒΔ 23km
Ενημερώθηκε: 25/10/2020 17:47
Few Clouds
Few Clouds
 Ανεμος από calm
Ανεμος: Απνοια
Θερμοκρασία: 14°C
Σημείο Δρόσου: 12°C
Υγρασία: 88%
Βαρόμετρο: 1013.9 hPa
Clouds: Few Clouds
Visibility: 16 km
Cloud details: Few Clouds 305 m
2020/10/25 15:47 KPAO 251547Z 00000KT 10SM FEW010 14/12 A2994
KRHV - San Jose/Reid, California, USA
Distance from station: ΑΒΑ 19km
Ενημερώθηκε: 25/10/2020 17:50
Σχεδόν νεφελώδης
Σχεδόν νεφελώδης
 Ανεμος από varies
Ανεμος: varies 7 km/h
Θερμοκρασία: 17°C
Σημείο Δρόσου: 11°C
Υγρασία: 68%
Βαρόμετρο: 1014.2 hPa
Clouds: Σχεδόν νεφελώδης
Visibility: 16 km
Cloud details: Σχεδόν νεφελώδης 1067 m
2020/10/25 15:50 KRHV 251550Z VRB04KT 10SM BKN035 17/11 A2995
 
KOAK - Oakland, California, USA
Distance from station: ΒΒΔ 50km
Ενημερώθηκε: 25/10/2020 17:53
Σχεδόν νεφελώδης
Σχεδόν νεφελώδης
 Ανεμος από ΝΔ
Ανεμος: ΝΔ 11 km/h
Θερμοκρασία: 18°C
Σημείο Δρόσου: 12°C
Υγρασία: 68%
Βαρόμετρο: 1014.2 hPa
Clouds: Σχεδόν νεφελώδης
Visibility: 16 km
Cloud details: Few Clouds 396 m
Σχεδόν νεφελώδης 640 m
2020/10/25 15:53 KOAK 251553Z 22006KT 10SM FEW013 BKN021 18/12 A2995 RMK AO2 SLP139 T01780117 $
KSQL - San Carlos Airpo, California, USA
Distance from station: ΒΔ 34km
Ενημερώθηκε: 25/10/2020 17:47
Few Clouds
Few Clouds
 Ανεμος από varies
Ανεμος: varies 7 km/h
Θερμοκρασία: 15°C
Σημείο Δρόσου: 11°C
Υγρασία: 77%
Βαρόμετρο: 1014.2 hPa
Clouds: Few Clouds
Visibility: 16 km
Cloud details: Few Clouds 610 m
2020/10/25 15:47 KSQL 251547Z VRB04KT 10SM FEW020 15/11 A2995
 
KSFO - San Francisco, California, USA
Distance from station: ΒΔ 49km
Ενημερώθηκε: 25/10/2020 18:17
Μερικώς νεφελώδης
Μερικώς νεφελώδης
 Ανεμος από ΝΔ
Ανεμος: ΝΔ 11 km/h
Θερμοκρασία: 16°C
Σημείο Δρόσου: 10°C
Υγρασία: 68%
Βαρόμετρο: 1013.9 hPa
Clouds: Μερικώς νεφελώδης
Visibility: 16 km
Cloud details: Few Clouds 488 m
Μερικώς νεφελώδης 610 m
2020/10/25 16:17 KSFO 251617Z 22006KT 10SM FEW016 SCT020 16/10 A2994 RMK AO2 T01610100
KE16 - San Martin, California, USA
Distance from station: ΑΝΑ 43km
Ενημερώθηκε: 25/10/2020 18:15
Few Clouds
Few Clouds
 Ανεμος από ΑΝΑ
Ανεμος: ΑΝΑ 9 km/h
Θερμοκρασία: 15°C
Σημείο Δρόσου: 11°C
Υγρασία: 77%
Βαρόμετρο: 1015.2 hPa
Clouds: Few Clouds
Visibility: 16 km
Cloud details: Few Clouds 914 m
2020/10/25 16:15 KE16 251615Z AUTO 12005KT 10SM FEW030 15/11 A2998 RMK AO2 PWINO PNO
 
KWVI - Watsonville, California, USA
Distance from station: ΝΝΑ 44km
Ενημερώθηκε: 25/10/2020 17:53
Συννεφιά
Συννεφιά
 Ανεμος από calm
Ανεμος: Απνοια
Θερμοκρασία: 15°C
Σημείο Δρόσου: 12°C
Υγρασία: 82%
Βαρόμετρο: 1014.6 hPa
Clouds: Συννεφιά
Visibility: 16 km
Cloud details: Συννεφιά 701 m
2020/10/25 15:53 KWVI 251553Z AUTO 00000KT 10SM OVC023 15/12 A2996 RMK AO2 SLP146 T01500117 $
KHAF - Half Moon Bay, California, USA
Distance from station: ΔΒΔ 50km
Ενημερώθηκε: 25/10/2020 18:15
Haze, Συννεφιά
Haze, Συννεφιά
 Ανεμος από ΝΝΔ
Ανεμος: ΝΝΔ 9 km/h
Θερμοκρασία: 14°C
Σημείο Δρόσου: 11°C
Υγρασία: 82%
Βαρόμετρο: 1014.6 hPa
Περίληψη: Haze
Clouds: Συννεφιά
Visibility: 10 km
Cloud details: Συννεφιά 488 m
2020/10/25 16:15 KHAF 251615Z AUTO 20005KT 6SM HZ OVC016 14/11 A2996 RMK AO2
 
KHWD - Hayward, California, USA
Distance from station: Β 44km
Ενημερώθηκε: 25/10/2020 17:54
Μερικώς νεφελώδης
Μερικώς νεφελώδης
 Ανεμος από ΒΒΑ
Ανεμος: ΒΒΑ 6 km/h
Θερμοκρασία: 17°C
Σημείο Δρόσου: 11°C
Υγρασία: 68%
Βαρόμετρο: 1013.5 hPa
Clouds: Μερικώς νεφελώδης
Visibility: 16 km
Cloud details: Μερικώς νεφελώδης 853 m
2020/10/25 15:54 KHWD 251554Z 02003KT 10SM SCT028 17/11 A2993 RMK AO2 SLP146 T01670111
KLVK - Livermore, California, USA
Distance from station: ΒΒΑ 51km
Ενημερώθηκε: 25/10/2020 17:53
Few Clouds
Few Clouds
 Ανεμος από ΔΒΔ
Ανεμος: ΔΒΔ 9 km/h
Θερμοκρασία: 15°C
Σημείο Δρόσου: 11°C
Υγρασία: 77%
Βαρόμετρο: 1013.9 hPa
Clouds: Few Clouds
Visibility: 16 km
Cloud details: Few Clouds 884 m
2020/10/25 15:53 KLVK 251553Z 29005KT 10SM FEW029 15/11 A2994 RMK AO2 SLP135 T01500111 $